Panhandle, Texas
Current Conditions -  °F | °C
As of 3:53 AM on Thursday 27 Nov 2014 (Local Time) from KAMA Reporting Station
Clear Clear  
Wind Chill: 23°   Ceiling: Unl
Heat Index: 32°   Visibility: 10mi
Dew Point: 21°   Wind: 13mph
Humidity: 64%   Direction: 170°S
Pressure: 30.42"   Gusts: NA
Location:  35.35°N, 101.38°W
Report Text: KAMA 270953Z AUTO 17011KT 10SM CLR 00/M06 A3042 RMK AO2 SLP299 T00001061
Loading
Personal Weather Stations






























Interactive Weather Map New forecast layout! Learn more

10-Day Weather Forecast

Advertisements
Track Severe Weather on mobile